sensor_id;sensor_type;location;lat;lon;timestamp;temperature;humidity
21417;DHT22;10869;52.238;10.716;2024-02-23T00:02:25;8.30;99.90
21417;DHT22;10869;52.238;10.716;2024-02-23T00:04:51;8.30;99.90
21417;DHT22;10869;52.238;10.716;2024-02-23T00:07:18;8.20;99.90
21417;DHT22;10869;52.238;10.716;2024-02-23T00:09:44;8.30;99.90
21417;DHT22;10869;52.238;10.716;2024-02-23T00:12:10;8.20;99.90
21417;DHT22;10869;52.238;10.716;2024-02-23T00:14:36;8.20;99.90
21417;DHT22;10869;52.238;10.716;2024-02-23T00:17:05;8.20;99.90
21417;DHT22;10869;52.238;10.716;2024-02-23T00:19:34;8.20;99.90
21417;DHT22;10869;52.238;10.716;2024-02-23T00:22:00;8.20;99.90
21417;DHT22;10869;52.238;10.716;2024-02-23T00:24:30;8.20;99.90
21417;DHT22;10869;52.238;10.716;2024-02-23T00:26:56;8.10;99.90
21417;DHT22;10869;52.238;10.716;2024-02-23T00:29:26;8.10;99.90
21417;DHT22;10869;52.238;10.716;2024-02-23T00:31:58;8.10;99.90
21417;DHT22;10869;52.238;10.716;2024-02-23T00:34:24;8.10;99.90
21417;DHT22;10869;52.238;10.716;2024-02-23T00:36:51;8.10;99.90
21417;DHT22;10869;52.238;10.716;2024-02-23T00:39:18;8.00;99.90
21417;DHT22;10869;52.238;10.716;2024-02-23T00:41:44;8.00;99.90
21417;DHT22;10869;52.238;10.716;2024-02-23T00:44:19;8.00;99.90
21417;DHT22;10869;52.238;10.716;2024-02-23T00:46:52;8.00;99.90
21417;DHT22;10869;52.238;10.716;2024-02-23T00:49:21;7.90;99.90
21417;DHT22;10869;52.238;10.716;2024-02-23T00:51:53;7.90;99.90
21417;DHT22;10869;52.238;10.716;2024-02-23T00:54:19;7.90;99.90
21417;DHT22;10869;52.238;10.716;2024-02-23T00:56:48;7.90;99.90
21417;DHT22;10869;52.238;10.716;2024-02-23T00:59:17;7.90;99.90
21417;DHT22;10869;52.238;10.716;2024-02-23T01:01:54;7.90;99.90
21417;DHT22;10869;52.238;10.716;2024-02-23T01:04:22;7.90;99.90
21417;DHT22;10869;52.238;10.716;2024-02-23T01:06:48;7.90;99.90
21417;DHT22;10869;52.238;10.716;2024-02-23T01:09:19;7.90;99.90
21417;DHT22;10869;52.238;10.716;2024-02-23T01:11:47;7.90;99.90
21417;DHT22;10869;52.238;10.716;2024-02-23T01:14:14;7.90;99.90
21417;DHT22;10869;52.238;10.716;2024-02-23T01:16:40;7.90;99.90
21417;DHT22;10869;52.238;10.716;2024-02-23T01:19:06;7.80;99.90
21417;DHT22;10869;52.238;10.716;2024-02-23T01:24:08;7.80;99.90
21417;DHT22;10869;52.238;10.716;2024-02-23T01:26:38;7.80;99.90
21417;DHT22;10869;52.238;10.716;2024-02-23T01:29:05;7.80;99.90
21417;DHT22;10869;52.238;10.716;2024-02-23T01:31:31;7.80;99.90
21417;DHT22;10869;52.238;10.716;2024-02-23T01:33:59;7.80;99.90
21417;DHT22;10869;52.238;10.716;2024-02-23T01:36:32;7.80;99.90
21417;DHT22;10869;52.238;10.716;2024-02-23T01:39:05;7.80;99.90
21417;DHT22;10869;52.238;10.716;2024-02-23T01:41:35;7.70;99.90
21417;DHT22;10869;52.238;10.716;2024-02-23T01:44:01;7.70;99.90
21417;DHT22;10869;52.238;10.716;2024-02-23T01:46:32;7.70;99.90
21417;DHT22;10869;52.238;10.716;2024-02-23T01:49:06;7.70;99.90
21417;DHT22;10869;52.238;10.716;2024-02-23T01:51:34;7.70;99.90
21417;DHT22;10869;52.238;10.716;2024-02-23T01:54:06;7.70;99.90
21417;DHT22;10869;52.238;10.716;2024-02-23T01:56:34;7.70;99.90
21417;DHT22;10869;52.238;10.716;2024-02-23T02:02:18;7.70;99.90
21417;DHT22;10869;52.238;10.716;2024-02-23T02:04:46;7.70;99.90
21417;DHT22;10869;52.238;10.716;2024-02-23T02:07:12;7.70;99.90
21417;DHT22;10869;52.238;10.716;2024-02-23T02:09:38;7.70;99.90
21417;DHT22;10869;52.238;10.716;2024-02-23T02:12:04;7.60;99.90
21417;DHT22;10869;52.238;10.716;2024-02-23T02:14:33;7.60;99.90
21417;DHT22;10869;52.238;10.716;2024-02-23T02:17:01;7.60;99.90
21417;DHT22;10869;52.238;10.716;2024-02-23T02:19:28;7.60;99.90
21417;DHT22;10869;52.238;10.716;2024-02-23T02:21:53;7.50;99.90
21417;DHT22;10869;52.238;10.716;2024-02-23T02:24:22;7.50;99.90
21417;DHT22;10869;52.238;10.716;2024-02-23T02:26:49;7.40;99.90
21417;DHT22;10869;52.238;10.716;2024-02-23T02:29:16;7.40;99.90
21417;DHT22;10869;52.238;10.716;2024-02-23T02:31:44;7.20;99.90
21417;DHT22;10869;52.238;10.716;2024-02-23T02:34:13;7.20;99.90
21417;DHT22;10869;52.238;10.716;2024-02-23T02:36:40;7.10;99.90
21417;DHT22;10869;52.238;10.716;2024-02-23T02:39:06;7.10;99.90
21417;DHT22;10869;52.238;10.716;2024-02-23T02:41:33;7.10;99.90
21417;DHT22;10869;52.238;10.716;2024-02-23T02:43:59;7.00;99.90
21417;DHT22;10869;52.238;10.716;2024-02-23T02:46:28;7.00;99.90
21417;DHT22;10869;52.238;10.716;2024-02-23T02:48:54;7.00;99.90
21417;DHT22;10869;52.238;10.716;2024-02-23T02:51:19;6.90;99.90
21417;DHT22;10869;52.238;10.716;2024-02-23T02:53:46;6.80;99.90
21417;DHT22;10869;52.238;10.716;2024-02-23T02:58:47;6.60;99.90
21417;DHT22;10869;52.238;10.716;2024-02-23T03:01:14;6.50;99.90
21417;DHT22;10869;52.238;10.716;2024-02-23T03:03:40;6.40;99.90
21417;DHT22;10869;52.238;10.716;2024-02-23T03:09:28;6.40;99.90
21417;DHT22;10869;52.238;10.716;2024-02-23T03:11:54;6.30;99.90
21417;DHT22;10869;52.238;10.716;2024-02-23T03:14:20;6.30;99.90
21417;DHT22;10869;52.238;10.716;2024-02-23T03:16:46;6.30;99.90
21417;DHT22;10869;52.238;10.716;2024-02-23T03:19:15;6.30;99.90
21417;DHT22;10869;52.238;10.716;2024-02-23T03:21:41;6.30;99.90
21417;DHT22;10869;52.238;10.716;2024-02-23T03:24:06;6.20;99.90
21417;DHT22;10869;52.238;10.716;2024-02-23T03:26:32;6.20;99.90
21417;DHT22;10869;52.238;10.716;2024-02-23T03:28:58;6.20;99.90
21417;DHT22;10869;52.238;10.716;2024-02-23T03:31:24;6.20;99.90
21417;DHT22;10869;52.238;10.716;2024-02-23T03:33:53;6.20;99.90
21417;DHT22;10869;52.238;10.716;2024-02-23T03:36:19;6.20;99.90
21417;DHT22;10869;52.238;10.716;2024-02-23T03:38:45;6.30;99.90
21417;DHT22;10869;52.238;10.716;2024-02-23T03:41:17;6.20;99.90
21417;DHT22;10869;52.238;10.716;2024-02-23T03:43:46;6.20;99.90
21417;DHT22;10869;52.238;10.716;2024-02-23T03:46:17;6.20;99.90
21417;DHT22;10869;52.238;10.716;2024-02-23T03:48:56;6.20;99.90
21417;DHT22;10869;52.238;10.716;2024-02-23T03:51:24;6.10;99.90
21417;DHT22;10869;52.238;10.716;2024-02-23T03:53:50;6.10;99.90
21417;DHT22;10869;52.238;10.716;2024-02-23T03:56:16;6.00;99.90
21417;DHT22;10869;52.238;10.716;2024-02-23T03:58:43;6.00;99.90
21417;DHT22;10869;52.238;10.716;2024-02-23T04:04:32;6.00;99.90
21417;DHT22;10869;52.238;10.716;2024-02-23T04:06:58;6.00;99.90
21417;DHT22;10869;52.238;10.716;2024-02-23T04:09:24;5.90;99.90
21417;DHT22;10869;52.238;10.716;2024-02-23T04:11:50;5.90;99.90
21417;DHT22;10869;52.238;10.716;2024-02-23T04:14:16;5.90;99.90
21417;DHT22;10869;52.238;10.716;2024-02-23T04:16:42;5.90;99.90
21417;DHT22;10869;52.238;10.716;2024-02-23T04:19:08;5.80;99.90
21417;DHT22;10869;52.238;10.716;2024-02-23T04:21:35;5.80;99.90
21417;DHT22;10869;52.238;10.716;2024-02-23T04:24:01;5.80;99.90
21417;DHT22;10869;52.238;10.716;2024-02-23T04:26:27;5.80;99.90
21417;DHT22;10869;52.238;10.716;2024-02-23T04:28:53;5.80;99.90
21417;DHT22;10869;52.238;10.716;2024-02-23T04:31:19;5.90;99.90
21417;DHT22;10869;52.238;10.716;2024-02-23T04:33:45;5.80;99.90
21417;DHT22;10869;52.238;10.716;2024-02-23T04:36:11;5.80;99.90
21417;DHT22;10869;52.238;10.716;2024-02-23T04:38:38;5.70;99.90
21417;DHT22;10869;52.238;10.716;2024-02-23T04:41:05;5.70;99.90
21417;DHT22;10869;52.238;10.716;2024-02-23T04:46:53;5.60;99.90
21417;DHT22;10869;52.238;10.716;2024-02-23T04:49:19;5.50;99.90
21417;DHT22;10869;52.238;10.716;2024-02-23T04:51:46;5.50;99.90
21417;DHT22;10869;52.238;10.716;2024-02-23T04:54:12;5.50;99.90
21417;DHT22;10869;52.238;10.716;2024-02-23T04:56:38;5.40;99.90
21417;DHT22;10869;52.238;10.716;2024-02-23T04:59:04;5.40;99.90
21417;DHT22;10869;52.238;10.716;2024-02-23T05:01:36;5.40;99.90
21417;DHT22;10869;52.238;10.716;2024-02-23T05:04:03;5.50;99.90
21417;DHT22;10869;52.238;10.716;2024-02-23T05:06:34;5.40;99.90
21417;DHT22;10869;52.238;10.716;2024-02-23T05:09:01;5.50;99.90
21417;DHT22;10869;52.238;10.716;2024-02-23T05:11:27;5.40;99.90
21417;DHT22;10869;52.238;10.716;2024-02-23T05:13:53;5.50;99.90
21417;DHT22;10869;52.238;10.716;2024-02-23T05:16:19;5.50;99.90
21417;DHT22;10869;52.238;10.716;2024-02-23T05:18:48;5.40;99.90
21417;DHT22;10869;52.238;10.716;2024-02-23T05:21:16;5.50;99.90
21417;DHT22;10869;52.238;10.716;2024-02-23T05:23:42;5.50;99.90
21417;DHT22;10869;52.238;10.716;2024-02-23T05:26:09;5.40;99.90
21417;DHT22;10869;52.238;10.716;2024-02-23T05:28:36;5.50;99.90
21417;DHT22;10869;52.238;10.716;2024-02-23T05:31:04;5.50;99.90
21417;DHT22;10869;52.238;10.716;2024-02-23T05:33:30;5.50;99.90
21417;DHT22;10869;52.238;10.716;2024-02-23T05:35:56;5.40;99.90
21417;DHT22;10869;52.238;10.716;2024-02-23T05:38:22;5.40;99.90
21417;DHT22;10869;52.238;10.716;2024-02-23T05:40:47;5.40;99.90
21417;DHT22;10869;52.238;10.716;2024-02-23T05:43:14;5.30;99.90
21417;DHT22;10869;52.238;10.716;2024-02-23T05:45:39;5.30;99.90
21417;DHT22;10869;52.238;10.716;2024-02-23T05:48:06;5.30;99.90
21417;DHT22;10869;52.238;10.716;2024-02-23T05:50:33;5.40;99.90
21417;DHT22;10869;52.238;10.716;2024-02-23T05:52:58;5.40;99.90
21417;DHT22;10869;52.238;10.716;2024-02-23T05:55:24;5.40;99.90
21417;DHT22;10869;52.238;10.716;2024-02-23T05:57:50;5.30;99.90
21417;DHT22;10869;52.238;10.716;2024-02-23T06:00:18;5.30;99.90
21417;DHT22;10869;52.238;10.716;2024-02-23T06:02:45;5.20;99.90
21417;DHT22;10869;52.238;10.716;2024-02-23T06:05:12;5.20;99.90
21417;DHT22;10869;52.238;10.716;2024-02-23T06:07:38;5.20;99.90
21417;DHT22;10869;52.238;10.716;2024-02-23T06:10:04;5.20;99.90
21417;DHT22;10869;52.238;10.716;2024-02-23T06:12:30;5.20;99.90
21417;DHT22;10869;52.238;10.716;2024-02-23T06:14:56;5.20;99.90
21417;DHT22;10869;52.238;10.716;2024-02-23T06:17:23;5.20;99.90
21417;DHT22;10869;52.238;10.716;2024-02-23T06:19:50;5.20;99.90
21417;DHT22;10869;52.238;10.716;2024-02-23T06:22:16;5.20;99.90
21417;DHT22;10869;52.238;10.716;2024-02-23T06:28:08;5.20;99.90
21417;DHT22;10869;52.238;10.716;2024-02-23T06:30:34;5.20;99.90
21417;DHT22;10869;52.238;10.716;2024-02-23T06:33:00;5.20;99.90
21417;DHT22;10869;52.238;10.716;2024-02-23T06:35:25;5.20;99.90
21417;DHT22;10869;52.238;10.716;2024-02-23T06:37:51;5.10;99.90
21417;DHT22;10869;52.238;10.716;2024-02-23T06:40:17;5.10;99.90
21417;DHT22;10869;52.238;10.716;2024-02-23T06:42:43;5.10;99.90
21417;DHT22;10869;52.238;10.716;2024-02-23T06:45:09;5.10;99.90
21417;DHT22;10869;52.238;10.716;2024-02-23T06:47:35;5.10;99.90
21417;DHT22;10869;52.238;10.716;2024-02-23T06:50:05;5.20;99.90
21417;DHT22;10869;52.238;10.716;2024-02-23T06:52:31;5.20;99.90
21417;DHT22;10869;52.238;10.716;2024-02-23T06:55:03;5.20;99.90
21417;DHT22;10869;52.238;10.716;2024-02-23T06:57:29;5.20;99.90
21417;DHT22;10869;52.238;10.716;2024-02-23T06:59:58;5.30;99.90
21417;DHT22;10869;52.238;10.716;2024-02-23T07:02:30;5.30;99.90
21417;DHT22;10869;52.238;10.716;2024-02-23T07:04:57;5.30;99.90
21417;DHT22;10869;52.238;10.716;2024-02-23T07:07:25;5.40;99.90
21417;DHT22;10869;52.238;10.716;2024-02-23T07:13:14;5.40;99.90
21417;DHT22;10869;52.238;10.716;2024-02-23T07:15:46;5.50;99.90
21417;DHT22;10869;52.238;10.716;2024-02-23T07:21:35;5.50;99.90
21417;DHT22;10869;52.238;10.716;2024-02-23T07:24:03;5.50;99.90
21417;DHT22;10869;52.238;10.716;2024-02-23T07:26:32;5.50;99.90
21417;DHT22;10869;52.238;10.716;2024-02-23T07:28:58;5.50;99.90
21417;DHT22;10869;52.238;10.716;2024-02-23T07:31:31;5.50;99.90
21417;DHT22;10869;52.238;10.716;2024-02-23T07:34:04;5.50;99.90
21417;DHT22;10869;52.238;10.716;2024-02-23T07:36:33;5.50;99.90
21417;DHT22;10869;52.238;10.716;2024-02-23T07:39:09;5.50;99.90
21417;DHT22;10869;52.238;10.716;2024-02-23T07:41:37;5.50;99.90
21417;DHT22;10869;52.238;10.716;2024-02-23T07:44:04;5.50;99.90
21417;DHT22;10869;52.238;10.716;2024-02-23T07:46:31;5.60;99.90
21417;DHT22;10869;52.238;10.716;2024-02-23T07:48:57;5.70;99.90
21417;DHT22;10869;52.238;10.716;2024-02-23T07:51:23;5.70;99.90
21417;DHT22;10869;52.238;10.716;2024-02-23T07:53:48;5.80;99.90
21417;DHT22;10869;52.238;10.716;2024-02-23T07:56:21;5.90;99.90
21417;DHT22;10869;52.238;10.716;2024-02-23T07:59:01;6.00;99.90
21417;DHT22;10869;52.238;10.716;2024-02-23T08:04:59;6.10;99.90
21417;DHT22;10869;52.238;10.716;2024-02-23T08:07:26;6.20;99.90
21417;DHT22;10869;52.238;10.716;2024-02-23T08:10:03;6.20;99.90
21417;DHT22;10869;52.238;10.716;2024-02-23T08:12:32;6.30;99.90
21417;DHT22;10869;52.238;10.716;2024-02-23T08:14:58;6.50;99.90
21417;DHT22;10869;52.238;10.716;2024-02-23T08:17:27;6.40;99.90
21417;DHT22;10869;52.238;10.716;2024-02-23T08:19:55;6.40;99.90
21417;DHT22;10869;52.238;10.716;2024-02-23T08:22:21;6.40;99.90
21417;DHT22;10869;52.238;10.716;2024-02-23T08:24:50;6.50;99.90
21417;DHT22;10869;52.238;10.716;2024-02-23T08:27:16;6.40;99.90
21417;DHT22;10869;52.238;10.716;2024-02-23T08:29:42;6.50;99.90
21417;DHT22;10869;52.238;10.716;2024-02-23T08:32:08;6.60;99.90
21417;DHT22;10869;52.238;10.716;2024-02-23T08:34:34;6.80;99.90
21417;DHT22;10869;52.238;10.716;2024-02-23T08:37:01;6.90;99.90
21417;DHT22;10869;52.238;10.716;2024-02-23T08:39:27;6.90;99.90
21417;DHT22;10869;52.238;10.716;2024-02-23T08:41:56;6.80;99.90
21417;DHT22;10869;52.238;10.716;2024-02-23T08:44:22;6.80;99.90
21417;DHT22;10869;52.238;10.716;2024-02-23T08:46:51;6.80;99.90
21417;DHT22;10869;52.238;10.716;2024-02-23T08:49:19;6.70;99.90
21417;DHT22;10869;52.238;10.716;2024-02-23T08:51:48;6.60;99.90
21417;DHT22;10869;52.238;10.716;2024-02-23T08:54:17;6.60;99.90
21417;DHT22;10869;52.238;10.716;2024-02-23T08:56:45;6.60;99.90
21417;DHT22;10869;52.238;10.716;2024-02-23T08:59:11;6.90;99.90
21417;DHT22;10869;52.238;10.716;2024-02-23T09:01:40;7.10;99.90
21417;DHT22;10869;52.238;10.716;2024-02-23T09:04:06;7.10;99.90
21417;DHT22;10869;52.238;10.716;2024-02-23T09:09:54;7.20;99.90
21417;DHT22;10869;52.238;10.716;2024-02-23T09:12:20;7.30;99.90
21417;DHT22;10869;52.238;10.716;2024-02-23T09:21:46;7.60;99.90
21417;DHT22;10869;52.238;10.716;2024-02-23T09:31:02;7.90;99.90
21417;DHT22;10869;52.238;10.716;2024-02-23T09:33:30;8.10;99.90
21417;DHT22;10869;52.238;10.716;2024-02-23T09:35:58;8.20;99.90
21417;DHT22;10869;52.238;10.716;2024-02-23T09:38:25;8.30;99.90
21417;DHT22;10869;52.238;10.716;2024-02-23T09:40:51;8.30;99.90
21417;DHT22;10869;52.238;10.716;2024-02-23T09:43:17;8.30;99.90
21417;DHT22;10869;52.238;10.716;2024-02-23T09:49:04;8.50;99.90
21417;DHT22;10869;52.238;10.716;2024-02-23T09:51:33;8.30;99.90
21417;DHT22;10869;52.238;10.716;2024-02-23T09:54:00;8.20;99.90
21417;DHT22;10869;52.238;10.716;2024-02-23T09:59:50;8.00;99.90
21417;DHT22;10869;52.238;10.716;2024-02-23T10:02:17;8.00;99.90
21417;DHT22;10869;52.238;10.716;2024-02-23T10:04:48;8.10;99.90
21417;DHT22;10869;52.238;10.716;2024-02-23T10:07:19;8.00;99.90
21417;DHT22;10869;52.238;10.716;2024-02-23T10:09:50;8.00;99.90
21417;DHT22;10869;52.238;10.716;2024-02-23T10:15:38;7.70;99.90
21417;DHT22;10869;52.238;10.716;2024-02-23T10:18:04;7.90;99.90
21417;DHT22;10869;52.238;10.716;2024-02-23T10:20:31;8.20;99.90
21417;DHT22;10869;52.238;10.716;2024-02-23T10:23:00;8.50;99.90
21417;DHT22;10869;52.238;10.716;2024-02-23T10:25:29;8.70;99.90
21417;DHT22;10869;52.238;10.716;2024-02-23T10:27:55;8.90;99.90
21417;DHT22;10869;52.238;10.716;2024-02-23T10:30:22;8.90;99.90
21417;DHT22;10869;52.238;10.716;2024-02-23T10:32:47;8.80;99.90
21417;DHT22;10869;52.238;10.716;2024-02-23T10:35:21;8.90;99.90
21417;DHT22;10869;52.238;10.716;2024-02-23T10:37:51;9.10;99.90
21417;DHT22;10869;52.238;10.716;2024-02-23T10:40:24;9.20;99.90
21417;DHT22;10869;52.238;10.716;2024-02-23T10:43:00;9.50;99.90
21417;DHT22;10869;52.238;10.716;2024-02-23T10:45:29;9.70;99.90
21417;DHT22;10869;52.238;10.716;2024-02-23T10:50:40;9.80;99.90
21417;DHT22;10869;52.238;10.716;2024-02-23T10:53:07;10.00;99.90
21417;DHT22;10869;52.238;10.716;2024-02-23T10:55:39;10.10;99.90
21417;DHT22;10869;52.238;10.716;2024-02-23T10:58:09;10.10;99.90
21417;DHT22;10869;52.238;10.716;2024-02-23T11:00:38;10.20;99.90
21417;DHT22;10869;52.238;10.716;2024-02-23T11:03:23;10.20;99.90
21417;DHT22;10869;52.238;10.716;2024-02-23T11:05:53;10.20;99.90
21417;DHT22;10869;52.238;10.716;2024-02-23T11:08:23;10.30;99.90
21417;DHT22;10869;52.238;10.716;2024-02-23T11:10:50;10.30;99.90
21417;DHT22;10869;52.238;10.716;2024-02-23T11:13:29;10.40;99.90
21417;DHT22;10869;52.238;10.716;2024-02-23T11:16:04;10.50;99.90
21417;DHT22;10869;52.238;10.716;2024-02-23T11:22:02;10.60;99.90
21417;DHT22;10869;52.238;10.716;2024-02-23T11:24:29;10.70;99.90
21417;DHT22;10869;52.238;10.716;2024-02-23T11:30:18;10.70;99.90
21417;DHT22;10869;52.238;10.716;2024-02-23T11:35:27;10.30;99.90
21417;DHT22;10869;52.238;10.716;2024-02-23T11:37:56;10.10;99.90
21417;DHT22;10869;52.238;10.716;2024-02-23T11:40:32;10.00;99.90
21417;DHT22;10869;52.238;10.716;2024-02-23T11:46:40;9.90;99.90
21417;DHT22;10869;52.238;10.716;2024-02-23T11:54:18;9.40;99.90
21417;DHT22;10869;52.238;10.716;2024-02-23T11:56:51;9.20;99.90
21417;DHT22;10869;52.238;10.716;2024-02-23T11:59:27;9.10;99.90
21417;DHT22;10869;52.238;10.716;2024-02-23T12:01:53;9.00;99.90
21417;DHT22;10869;52.238;10.716;2024-02-23T12:04:19;9.00;99.90
21417;DHT22;10869;52.238;10.716;2024-02-23T12:06:45;9.00;99.90
21417;DHT22;10869;52.238;10.716;2024-02-23T12:09:26;8.80;99.90
21417;DHT22;10869;52.238;10.716;2024-02-23T12:14:52;8.80;99.90
21417;DHT22;10869;52.238;10.716;2024-02-23T12:17:18;9.20;99.90
21417;DHT22;10869;52.238;10.716;2024-02-23T12:19:44;9.30;99.90
21417;DHT22;10869;52.238;10.716;2024-02-23T12:24:47;9.50;99.90
21417;DHT22;10869;52.238;10.716;2024-02-23T12:29:55;9.50;99.90
21417;DHT22;10869;52.238;10.716;2024-02-23T12:32:21;9.40;99.90
21417;DHT22;10869;52.238;10.716;2024-02-23T12:34:47;9.20;99.90
21417;DHT22;10869;52.238;10.716;2024-02-23T12:37:15;9.00;99.90
21417;DHT22;10869;52.238;10.716;2024-02-23T12:39:42;8.80;99.90
21417;DHT22;10869;52.238;10.716;2024-02-23T12:42:10;8.60;99.90
21417;DHT22;10869;52.238;10.716;2024-02-23T12:44:39;8.60;99.90
21417;DHT22;10869;52.238;10.716;2024-02-23T12:47:07;8.60;99.90
21417;DHT22;10869;52.238;10.716;2024-02-23T12:49:32;8.50;99.90
21417;DHT22;10869;52.238;10.716;2024-02-23T12:51:58;8.40;99.90
21417;DHT22;10869;52.238;10.716;2024-02-23T12:54:25;8.80;99.90
21417;DHT22;10869;52.238;10.716;2024-02-23T12:56:51;9.20;99.90
21417;DHT22;10869;52.238;10.716;2024-02-23T12:59:17;9.30;99.90
21417;DHT22;10869;52.238;10.716;2024-02-23T13:01:43;9.30;99.90
21417;DHT22;10869;52.238;10.716;2024-02-23T13:04:09;9.40;99.90
21417;DHT22;10869;52.238;10.716;2024-02-23T13:09:59;9.20;99.90
21417;DHT22;10869;52.238;10.716;2024-02-23T13:15:50;9.00;99.90
21417;DHT22;10869;52.238;10.716;2024-02-23T13:18:16;9.10;99.90
21417;DHT22;10869;52.238;10.716;2024-02-23T13:20:43;9.20;99.90
21417;DHT22;10869;52.238;10.716;2024-02-23T13:23:17;9.40;99.90
21417;DHT22;10869;52.238;10.716;2024-02-23T13:25:44;9.60;99.90
21417;DHT22;10869;52.238;10.716;2024-02-23T13:28:11;9.70;99.90
21417;DHT22;10869;52.238;10.716;2024-02-23T13:30:38;9.70;99.90
21417;DHT22;10869;52.238;10.716;2024-02-23T13:33:08;9.70;99.90
21417;DHT22;10869;52.238;10.716;2024-02-23T13:35:37;9.60;99.90
21417;DHT22;10869;52.238;10.716;2024-02-23T13:43:23;10.00;99.90
21417;DHT22;10869;52.238;10.716;2024-02-23T13:45:51;9.80;99.90
21417;DHT22;10869;52.238;10.716;2024-02-23T13:48:17;9.70;99.90
21417;DHT22;10869;52.238;10.716;2024-02-23T13:50:47;9.60;99.90
21417;DHT22;10869;52.238;10.716;2024-02-23T13:59:58;9.40;99.90
21417;DHT22;10869;52.238;10.716;2024-02-23T14:10:10;9.30;99.90
21417;DHT22;10869;52.238;10.716;2024-02-23T14:12:36;9.30;99.90
21417;DHT22;10869;52.238;10.716;2024-02-23T14:15:08;9.30;99.90
21417;DHT22;10869;52.238;10.716;2024-02-23T14:54:38;8.90;99.90
21417;DHT22;10869;52.238;10.716;2024-02-23T14:57:07;8.80;99.90
21417;DHT22;10869;52.238;10.716;2024-02-23T14:59:33;8.80;99.90
21417;DHT22;10869;52.238;10.716;2024-02-23T15:02:07;8.70;99.90
21417;DHT22;10869;52.238;10.716;2024-02-23T15:04:33;8.70;99.90
21417;DHT22;10869;52.238;10.716;2024-02-23T15:07:00;8.70;99.90
21417;DHT22;10869;52.238;10.716;2024-02-23T15:09:26;8.60;99.90
21417;DHT22;10869;52.238;10.716;2024-02-23T15:15:14;8.60;99.90
21417;DHT22;10869;52.238;10.716;2024-02-23T15:17:40;8.60;99.90
21417;DHT22;10869;52.238;10.716;2024-02-23T15:20:08;8.50;99.90
21417;DHT22;10869;52.238;10.716;2024-02-23T15:22:34;8.50;99.90
21417;DHT22;10869;52.238;10.716;2024-02-23T15:25:00;8.40;99.90
21417;DHT22;10869;52.238;10.716;2024-02-23T15:27:26;8.40;99.90
21417;DHT22;10869;52.238;10.716;2024-02-23T15:33:14;8.40;99.90
21417;DHT22;10869;52.238;10.716;2024-02-23T15:35:40;8.50;99.90
21417;DHT22;10869;52.238;10.716;2024-02-23T15:38:06;8.50;99.90
21417;DHT22;10869;52.238;10.716;2024-02-23T15:40:31;8.40;99.90
21417;DHT22;10869;52.238;10.716;2024-02-23T15:42:57;8.40;99.90
21417;DHT22;10869;52.238;10.716;2024-02-23T15:45:23;8.40;99.90
21417;DHT22;10869;52.238;10.716;2024-02-23T15:47:49;8.40;99.90
21417;DHT22;10869;52.238;10.716;2024-02-23T15:50:15;8.40;99.90
21417;DHT22;10869;52.238;10.716;2024-02-23T15:52:41;8.40;99.90
21417;DHT22;10869;52.238;10.716;2024-02-23T15:55:07;8.30;99.90
21417;DHT22;10869;52.238;10.716;2024-02-23T16:00:58;8.30;99.90
21417;DHT22;10869;52.238;10.716;2024-02-23T16:06:46;8.20;99.90
21417;DHT22;10869;52.238;10.716;2024-02-23T16:09:12;8.10;99.90
21417;DHT22;10869;52.238;10.716;2024-02-23T16:14:58;8.00;99.90
21417;DHT22;10869;52.238;10.716;2024-02-23T16:17:26;8.00;99.90
21417;DHT22;10869;52.238;10.716;2024-02-23T16:19:52;7.90;99.90
21417;DHT22;10869;52.238;10.716;2024-02-23T16:43:10;7.70;99.90
21417;DHT22;10869;52.238;10.716;2024-02-23T16:48:12;7.70;99.90
21417;DHT22;10869;52.238;10.716;2024-02-23T16:50:38;7.60;99.90
21417;DHT22;10869;52.238;10.716;2024-02-23T16:53:06;7.60;99.90
21417;DHT22;10869;52.238;10.716;2024-02-23T16:55:33;7.60;99.90
21417;DHT22;10869;52.238;10.716;2024-02-23T16:57:59;7.60;99.90
21417;DHT22;10869;52.238;10.716;2024-02-23T17:00:25;7.60;99.90
21417;DHT22;10869;52.238;10.716;2024-02-23T17:02:52;7.60;99.90
21417;DHT22;10869;52.238;10.716;2024-02-23T17:05:21;7.50;99.90
21417;DHT22;10869;52.238;10.716;2024-02-23T17:07:47;7.50;99.90
21417;DHT22;10869;52.238;10.716;2024-02-23T17:10:13;7.50;99.90
21417;DHT22;10869;52.238;10.716;2024-02-23T17:12:39;7.50;99.90
21417;DHT22;10869;52.238;10.716;2024-02-23T17:15:10;7.40;99.90
21417;DHT22;10869;52.238;10.716;2024-02-23T17:17:36;7.40;99.90
21417;DHT22;10869;52.238;10.716;2024-02-23T17:20:02;7.40;99.90
21417;DHT22;10869;52.238;10.716;2024-02-23T17:22:29;7.30;99.90
21417;DHT22;10869;52.238;10.716;2024-02-23T17:24:56;7.30;99.90
21417;DHT22;10869;52.238;10.716;2024-02-23T17:27:22;7.30;99.90
21417;DHT22;10869;52.238;10.716;2024-02-23T17:29:48;7.20;99.90
21417;DHT22;10869;52.238;10.716;2024-02-23T17:32:14;7.20;99.90
21417;DHT22;10869;52.238;10.716;2024-02-23T17:34:39;7.20;99.90
21417;DHT22;10869;52.238;10.716;2024-02-23T17:47:27;7.10;99.90
21417;DHT22;10869;52.238;10.716;2024-02-23T17:52:26;7.00;99.90
21417;DHT22;10869;52.238;10.716;2024-02-23T17:54:52;6.90;99.90
21417;DHT22;10869;52.238;10.716;2024-02-23T17:57:18;6.90;99.90
21417;DHT22;10869;52.238;10.716;2024-02-23T17:59:48;6.80;99.90
21417;DHT22;10869;52.238;10.716;2024-02-23T18:02:20;6.80;99.90
21417;DHT22;10869;52.238;10.716;2024-02-23T18:07:22;6.70;99.90
21417;DHT22;10869;52.238;10.716;2024-02-23T18:09:48;6.60;99.90
21417;DHT22;10869;52.238;10.716;2024-02-23T18:12:13;6.60;99.90
21417;DHT22;10869;52.238;10.716;2024-02-23T18:14:39;6.70;99.90
21417;DHT22;10869;52.238;10.716;2024-02-23T18:17:05;6.70;99.90
21417;DHT22;10869;52.238;10.716;2024-02-23T18:19:31;6.70;99.90
21417;DHT22;10869;52.238;10.716;2024-02-23T18:21:58;6.70;99.90
21417;DHT22;10869;52.238;10.716;2024-02-23T18:27:00;6.70;99.90
21417;DHT22;10869;52.238;10.716;2024-02-23T18:29:26;6.60;99.90
21417;DHT22;10869;52.238;10.716;2024-02-23T18:31:52;6.60;99.90
21417;DHT22;10869;52.238;10.716;2024-02-23T18:34:17;6.60;99.90
21417;DHT22;10869;52.238;10.716;2024-02-23T18:36:43;6.50;99.90
21417;DHT22;10869;52.238;10.716;2024-02-23T18:39:09;6.50;99.90
21417;DHT22;10869;52.238;10.716;2024-02-23T18:41:37;6.40;99.90
21417;DHT22;10869;52.238;10.716;2024-02-23T18:44:03;6.40;99.90
21417;DHT22;10869;52.238;10.716;2024-02-23T18:46:30;6.30;99.90
21417;DHT22;10869;52.238;10.716;2024-02-23T18:48:57;6.30;99.90
21417;DHT22;10869;52.238;10.716;2024-02-23T18:51:24;6.30;99.90
21417;DHT22;10869;52.238;10.716;2024-02-23T18:53:54;6.30;99.90
21417;DHT22;10869;52.238;10.716;2024-02-23T18:56:20;6.20;99.90
21417;DHT22;10869;52.238;10.716;2024-02-23T18:58:51;6.20;99.90
21417;DHT22;10869;52.238;10.716;2024-02-23T19:04:40;6.20;99.90
21417;DHT22;10869;52.238;10.716;2024-02-23T19:07:05;6.10;99.90